Rumsey, California
Current Conditions -  °F | °C
As of 2:53 AM on Friday 24 Oct 2014 (Local Time) from KSMF Reporting Station
Clear Clear  
Wind Chill: 53°   Ceiling: Unl
Heat Index: 53°   Visibility: 10mi
Dew Point: 51°   Wind: 3mph
Humidity: 93%   Direction: 340°NNW
Pressure: 29.98"   Gusts: NA
Location:  38.89°N, 122.24°W
Report Text: KSMF 240953Z 34003KT 10SM CLR 12/11 A2998 RMK AO2 SLP151 T01170106
Loading
Personal Weather Stations






























Interactive Weather Map
Tropical Storm Tracking
New forecast layout! Learn more

10-Day Weather Forecast

Advertisements
Track Severe Weather on mobile